Time;durP1;ratioP1;P1;durP2;ratioP2;P2;SDS_P1;SDS_P2;PMS_P1;PMS_P2;Temp;Humidity;BMP_temperature;BMP_pressure;BME280_temperature;BME280_humidity;BME280_pressure;Samples;Min_cycle;Max_cycle;Signal;HPM_P1;HPM_P2
2022/12/18 00:14:36;;;;;;;34.60;18.70;;;;;;;-2.48;91.14;96625.28;5951018;23;20188;-93
2022/12/18 00:17:38;;;;;;;26.33;15.37;;;;;;;-2.68;91.95;96623.69;6073007;23;20209;-93
2022/12/18 00:20:50;;;;;;;27.33;15.70;;;;;;;-2.79;93.23;96620.84;6129298;23;20284;-93
2022/12/18 00:47:55;;;;;;;;;;;;;;;;;;;;;
2022/12/18 00:50:39;;;;;;;33.63;17.83;;;;;;;-2.44;90.30;96652.81;5951091;23;20173;-93
2022/12/18 00:57:38;;;;;;;31.87;18.20;;;;;;;-2.62;91.76;96648.63;6107682;23;20198;-93
2022/12/18 01:00:28;;;;;;;37.07;19.17;;;;;;;-2.80;93.18;96659.53;6109630;23;20233;-93
2022/12/18 01:10:24;;;;;;;30.93;18.00;;;;;;;-2.35;90.51;96671.75;6134856;23;20194;-91
2022/12/18 01:22:01;;;;;;;36.13;20.03;;;;;;;-2.48;90.75;96695.88;6153409;23;20207;-92
2022/12/18 01:25:11;;;;;;;33.90;17.53;;;;;;;-2.50;90.74;96693.44;6264559;23;20153;-93
2022/12/18 01:30:32;;;;;;;31.70;17.40;;;;;;;-2.30;89.86;96707.66;6261427;23;20177;-93
2022/12/18 01:36:03;;;;;;;31.77;18.40;;;;;;;-2.29;89.47;96708.47;6256343;23;20179;-93
2022/12/18 01:42:30;;;;;;;;;;;;;;;;;;;;;
2022/12/18 01:45:44;;;;;;;33.37;17.50;;;;;;;-2.15;89.32;96712.00;6268145;22;20256;-93
2022/12/18 01:48:23;;;;;;;31.33;16.87;;;;;;;-2.13;88.09;96712.75;6243277;23;20188;-93
2022/12/18 01:50:56;;;;;;;31.67;18.73;;;;;;;-2.26;88.45;96706.63;6263108;23;20191;-92
2022/12/18 01:53:47;;;;;;;30.77;17.30;;;;;;;-2.37;88.81;96715.59;6264253;23;20177;-92
2022/12/18 01:59:30;;;;;;;30.63;17.20;;;;;;;-2.38;89.24;96719.81;6259929;23;20204;-90
2022/12/18 02:02:20;;;;;;;30.83;17.43;;;;;;;-2.37;89.50;96720.63;6263275;23;20168;-90
2022/12/18 02:05:09;;;;;;;30.03;16.47;;;;;;;-2.54;89.78;96718.88;6263269;23;20169;-91
2022/12/18 02:08:12;;;;;;;30.10;15.77;;;;;;;-2.64;90.47;96715.94;6262519;23;20205;-92
2022/12/18 02:11:09;;;;;;;30.80;15.73;;;;;;;-2.73;91.43;96713.00;6263234;23;20176;-93
2022/12/18 02:14:12;;;;;;;28.20;15.43;;;;;;;-2.87;91.61;96696.78;6263007;23;20172;-89
2022/12/18 02:16:59;;;;;;;25.30;15.13;;;;;;;-3.03;92.73;96703.38;6263204;23;20196;-93
2022/12/18 02:20:16;;;;;;;27.33;15.43;;;;;;;-3.11;94.42;96702.91;6262476;23;20192;-93
2022/12/18 02:34:01;;;;;;;;;;;;;;;;;;;;;
2022/12/18 02:59:47;;;;;;;32.13;17.60;;;;;;;-3.03;94.96;96715.97;6194363;23;20225;-93
2022/12/18 03:02:36;;;;;;;31.93;16.73;;;;;;;-3.20;95.87;96711.66;6196606;23;20237;-93
2022/12/18 03:08:34;;;;;;;36.27;18.33;;;;;;;-3.23;96.47;96704.22;6240368;23;20825;-91
2022/12/18 03:15:13;;;;;;;32.80;18.83;;;;;;;-3.09;96.00;96697.81;6183051;23;20169;-92
2022/12/18 03:35:44;;;;;;;33.07;16.47;;;;;;;-3.13;94.98;96704.66;5940808;23;20182;-93
2022/12/18 03:41:46;;;;;;;31.30;16.37;;;;;;;-3.07;94.75;96716.16;6049835;23;20173;-93
2022/12/18 04:22:08;;;;;;;30.43;17.30;;;;;;;-2.81;92.37;96720.91;6134493;23;20219;-90
2022/12/18 04:31:45;;;;;;;32.13;18.23;;;;;;;-2.84;92.88;96711.75;6047828;23;20205;-92
2022/12/18 04:38:19;;;;;;;36.20;18.13;;;;;;;-2.94;92.77;96720.63;6019006;23;20227;-92
2022/12/18 04:41:37;;;;;;;33.33;19.37;;;;;;;-3.00;93.46;96718.38;6259248;23;20188;-91
2022/12/18 04:47:11;;;;;;;33.30;18.20;;;;;;;-2.94;93.48;96727.38;6164433;23;20195;-92
2022/12/18 04:49:57;;;;;;;;;;;;;;;;;;;;;
2022/12/18 04:55:58;;;;;;;;;;;;;;;;;;;;;
2022/12/18 04:59:03;;;;;;;30.23;17.10;;;;;;;-2.88;91.66;96752.28;6260660;23;20188;-92
2022/12/18 05:01:45;;;;;;;33.60;17.17;;;;;;;-2.92;91.36;96743.25;6262119;23;20184;-89
2022/12/18 05:10:29;;;;;;;33.37;17.70;;;;;;;-2.88;91.70;96742.19;6142456;23;20184;-92
2022/12/18 05:13:37;;;;;;;32.40;17.60;;;;;;;-2.80;92.18;96751.06;6187569;23;20173;-92
2022/12/18 05:16:19;;;;;;;33.30;18.10;;;;;;;-2.73;90.66;96740.75;6226223;23;20220;-93
2022/12/18 05:19:17;;;;;;;30.47;18.33;;;;;;;-2.82;91.17;96754.53;6262113;23;20185;-93
2022/12/18 05:22:01;;;;;;;30.37;17.63;;;;;;;-2.69;90.87;96758.16;6262598;23;20196;-90
2022/12/18 05:37:18;;;;;;;31.50;17.63;;;;;;;-2.53;89.45;96761.66;6138195;23;20783;-90
2022/12/18 05:43:56;;;;;;;29.77;17.27;;;;;;;-2.55;88.49;96765.13;6252787;23;20234;-92
2022/12/18 05:49:31;;;;;;;28.60;17.13;;;;;;;-2.62;88.87;96766.28;6244662;23;20183;-91
2022/12/18 06:13:36;;;;;;;25.63;14.87;;;;;;;-3.06;90.55;96768.19;6100526;23;20726;-82
2022/12/18 06:16:04;;;;;;;25.50;15.03;;;;;;;-3.08;90.71;96772.47;6139459;23;20177;-81
2022/12/18 06:18:32;;;;;;;24.80;15.30;;;;;;;-3.11;91.02;96773.44;6242402;23;20204;-82
2022/12/18 06:21:01;;;;;;;24.30;15.53;;;;;;;-3.04;90.60;96767.22;6243067;23;20172;-80
2022/12/18 06:23:28;;;;;;;24.07;15.23;;;;;;;-2.90;89.80;96772.53;6242785;23;20645;-82
2022/12/18 06:25:54;;;;;;;26.63;14.50;;;;;;;-2.91;89.08;96785.19;6242612;23;20566;-82
2022/12/18 06:28:21;;;;;;;28.03;16.33;;;;;;;-2.98;89.75;96786.31;6241976;23;20176;-82
2022/12/18 06:30:49;;;;;;;26.13;15.73;;;;;;;-2.98;90.23;96783.78;6243041;23;20173;-82
2022/12/18 06:33:17;;;;;;;28.70;16.20;;;;;;;-2.92;89.88;96783.53;6243056;23;20187;-82
2022/12/18 06:35:44;;;;;;;27.37;16.20;;;;;;;-2.96;90.01;96797.16;6243118;23;20176;-83
2022/12/18 06:38:11;;;;;;;26.90;15.53;;;;;;;-2.94;89.92;96803.75;6242485;23;20189;-82
2022/12/18 06:40:39;;;;;;;28.37;16.63;;;;;;;-2.96;90.43;96800.50;6242893;23;20187;-80
2022/12/18 06:43:05;;;;;;;24.73;14.87;;;;;;;-2.85;89.74;96800.84;6240368;23;20173;-83
2022/12/18 06:45:32;;;;;;;26.00;15.43;;;;;;;-2.79;89.55;96804.81;6242851;23;20173;-81
2022/12/18 06:47:58;;;;;;;25.43;14.37;;;;;;;-2.86;89.21;96798.38;6241124;23;20204;-80
2022/12/18 06:50:25;;;;;;;26.93;16.10;;;;;;;-2.83;88.74;96806.63;6243961;23;20172;-81
2022/12/18 06:52:53;;;;;;;25.80;14.87;;;;;;;-2.80;88.26;96806.50;6244491;23;20177;-80
2022/12/18 06:55:19;;;;;;;24.97;15.17;;;;;;;-2.87;88.61;96812.69;6243318;23;20173;-80
2022/12/18 06:57:46;;;;;;;25.13;15.17;;;;;;;-2.73;88.29;96818.88;6242432;23;20247;-80
2022/12/18 07:00:13;;;;;;;28.30;16.33;;;;;;;-2.69;87.80;96828.72;6243305;23;20180;-81
2022/12/18 07:02:40;;;;;;;23.53;14.57;;;;;;;-2.68;87.54;96824.50;6242773;23;20506;-80
2022/12/18 07:05:07;;;;;;;26.20;15.80;;;;;;;-2.63;87.78;96831.00;6242135;23;20208;-81
2022/12/18 07:07:34;;;;;;;25.07;15.33;;;;;;;-2.51;87.01;96832.19;6242344;23;20193;-81
2022/12/18 07:10:02;;;;;;;21.27;13.00;;;;;;;-2.69;85.96;96831.25;6242694;23;20176;-82
2022/12/18 07:12:29;;;;;;;22.03;13.80;;;;;;;-2.83;86.54;96831.03;6241536;23;20177;-83
2022/12/18 07:14:55;;;;;;;22.47;13.63;;;;;;;-2.91;87.10;96833.06;6241735;23;20172;-81
2022/12/18 07:17:22;;;;;;;24.97;14.20;;;;;;;-2.94;87.47;96840.75;6242481;23;20369;-81
2022/12/18 07:19:48;;;;;;;25.47;15.07;;;;;;;-2.81;87.28;96842.69;6240925;23;20609;-82
2022/12/18 07:22:15;;;;;;;26.90;15.50;;;;;;;-2.63;86.75;96841.09;6242697;23;20169;-80
2022/12/18 07:24:41;;;;;;;24.70;15.00;;;;;;;-2.57;86.00;96850.91;6242081;23;20482;-82
2022/12/18 07:27:09;;;;;;;23.83;14.10;;;;;;;-2.59;86.06;96846.81;6242240;23;20200;-82
2022/12/18 07:29:35;;;;;;;29.57;17.13;;;;;;;-2.57;86.52;96845.88;6241820;23;20169;-83
2022/12/18 07:32:02;;;;;;;27.17;15.70;;;;;;;-2.53;86.60;96854.94;6242343;23;20176;-82
2022/12/18 07:34:29;;;;;;;26.63;16.20;;;;;;;-2.45;86.25;96852.06;6241501;23;20177;-81
2022/12/18 07:36:55;;;;;;;26.63;15.83;;;;;;;-2.58;87.14;96848.47;6242232;23;20277;-82
2022/12/18 07:39:21;;;;;;;28.30;16.73;;;;;;;-2.61;87.50;96838.50;6241255;23;20678;-81
2022/12/18 07:42:30;;;;;;;31.93;17.77;;;;;;;-2.59;88.36;96834.22;6240969;23;20638;-81
2022/12/18 07:44:36;;;;;;;26.70;16.20;;;;;;;-2.46;87.21;96837.84;6241794;23;20558;-82
2022/12/18 07:47:03;;;;;;;29.40;16.87;;;;;;;-2.39;85.94;96835.88;6241704;23;20713;-82
2022/12/18 07:49:29;;;;;;;26.47;15.80;;;;;;;-2.54;85.63;96847.44;6241169;23;20173;-82
2022/12/18 07:51:56;;;;;;;27.97;16.33;;;;;;;-2.66;86.96;96855.50;6242611;23;20177;-82
2022/12/18 07:54:23;;;;;;;103.13;54.53;;;;;;;-2.73;87.49;96841.56;6241287;23;20847;-82
2022/12/18 07:56:49;;;;;;;32.17;18.93;;;;;;;-2.81;87.75;96841.84;6242168;23;20222;-81
2022/12/18 07:59:16;;;;;;;31.67;22.03;;;;;;;-2.80;87.53;96846.84;6241663;23;20196;-80
2022/12/18 08:01:44;;;;;;;26.27;15.90;;;;;;;-3.03;87.05;96846.16;6241581;23;20169;-82
2022/12/18 08:04:10;;;;;;;26.07;15.03;;;;;;;-3.24;87.87;96853.69;6242264;23;20176;-80
2022/12/18 08:06:37;;;;;;;26.83;15.57;;;;;;;-3.25;88.58;96861.28;6241588;23;20189;-81
2022/12/18 08:09:03;;;;;;;25.60;14.30;;;;;;;-3.21;89.22;96861.13;6241517;23;20183;-82
2022/12/18 08:11:30;;;;;;;28.57;15.40;;;;;;;-3.04;88.33;96862.94;6241483;23;20256;-82
2022/12/18 08:13:57;;;;;;;24.70;14.27;;;;;;;-2.91;87.45;96860.78;6242227;23;20184;-82
2022/12/18 08:16:25;;;;;;;23.70;14.73;;;;;;;-2.81;86.47;96865.34;6242226;23;20197;-82
2022/12/18 08:18:54;;;;;;;24.97;15.20;;;;;;;-2.86;86.97;96876.50;6242128;23;20200;-82
2022/12/18 08:21:23;;;;;;;24.33;15.27;;;;;;;-2.85;86.82;96870.59;6242698;23;20180;-82
2022/12/18 08:23:50;;;;;;;24.37;15.20;;;;;;;-2.76;86.90;96866.88;6241656;23;20239;-82
2022/12/18 08:26:17;;;;;;;25.87;14.37;;;;;;;-2.73;86.09;96872.63;6244561;23;20533;-83
2022/12/18 08:28:43;;;;;;;27.30;15.73;;;;;;;-2.69;86.16;96875.84;6244331;23;20518;-82
2022/12/18 08:31:10;;;;;;;27.33;16.33;;;;;;;-2.55;86.20;96876.88;6244237;23;20168;-82
2022/12/18 08:33:38;;;;;;;27.93;15.47;;;;;;;-2.39;85.30;96866.94;6244838;23;20263;-82
2022/12/18 08:36:07;;;;;;;26.13;15.03;;;;;;;-2.41;83.78;96872.94;6244837;23;20192;-81
2022/12/18 08:38:34;;;;;;;26.13;15.17;;;;;;;-2.39;84.27;96869.47;6243880;23;20197;-82
2022/12/18 08:41:01;;;;;;;23.90;14.80;;;;;;;-2.39;84.69;96869.47;6244203;23;20180;-82
2022/12/18 08:46:12;;;;;;;27.87;16.63;;;;;;;-2.43;83.67;96880.56;6244064;23;20198;-81
2022/12/18 08:48:38;;;;;;;27.23;17.10;;;;;;;-2.41;83.53;96881.34;6244409;23;20173;-82
2022/12/18 08:51:06;;;;;;;22.50;14.77;;;;;;;-2.55;83.75;96891.19;6244220;23;20180;-82
2022/12/18 08:53:33;;;;;;;22.77;15.27;;;;;;;-2.69;84.76;96880.88;6244433;23;20180;-82
2022/12/18 08:55:59;;;;;;;23.87;13.93;;;;;;;-2.77;84.72;96878.66;6244392;23;20181;-82
2022/12/18 08:58:25;;;;;;;26.07;15.17;;;;;;;-2.79;84.89;96881.25;6243926;23;20200;-82
2022/12/18 09:00:52;;;;;;;25.73;14.63;;;;;;;-2.86;86.17;96884.88;6244558;23;20173;-82
2022/12/18 09:03:19;;;;;;;25.03;13.80;;;;;;;-2.88;85.88;96893.38;6244580;23;20183;-83
2022/12/18 09:05:46;;;;;;;23.67;13.90;;;;;;;-3.03;86.04;96891.47;6244537;23;20177;-80
2022/12/18 09:08:14;;;;;;;25.37;14.33;;;;;;;-3.06;86.70;96886.56;6244222;23;20208;-81
2022/12/18 09:10:45;;;;;;;21.70;14.17;;;;;;;-3.08;86.93;96889.19;6243434;23;20180;-82
2022/12/18 09:13:13;;;;;;;27.33;14.97;;;;;;;-3.09;87.19;96894.28;6244144;23;20181;-80
2022/12/18 09:15:42;;;;;;;26.73;14.83;;;;;;;-3.08;86.85;96900.94;6243850;23;20256;-82
2022/12/18 09:18:08;;;;;;;23.93;14.30;;;;;;;-3.03;87.31;96899.88;6243694;23;20196;-81
2022/12/18 09:20:35;;;;;;;25.63;14.80;;;;;;;-2.87;86.94;96897.53;6243536;23;20172;-83
2022/12/18 09:23:02;;;;;;;25.53;14.77;;;;;;;-2.67;86.02;96889.16;6244537;23;20498;-82
2022/12/18 09:25:32;;;;;;;21.43;12.90;;;;;;;-2.64;84.38;96886.50;6244808;23;20180;-80
2022/12/18 09:27:59;;;;;;;23.03;13.73;;;;;;;-2.67;84.72;96886.63;6244590;23;20201;-81
2022/12/18 09:30:25;;;;;;;23.50;13.60;;;;;;;-2.65;85.85;96888.22;6244503;23;20173;-82
2022/12/18 09:32:52;;;;;;;21.03;12.93;;;;;;;-2.77;85.40;96881.19;6244554;23;20548;-82
2022/12/18 09:35:18;;;;;;;20.93;13.10;;;;;;;-2.73;85.75;96884.41;6243707;23;20177;-83
2022/12/18 09:37:45;;;;;;;20.60;12.13;;;;;;;-2.56;85.13;96887.84;6244085;23;20196;-83
2022/12/18 09:40:15;;;;;;;23.23;13.70;;;;;;;-2.39;83.53;96883.78;6244251;23;20198;-80
2022/12/18 09:42:48;;;;;;;24.67;13.80;;;;;;;-2.39;83.02;96883.78;6244359;23;20215;-84
2022/12/18 09:45:16;;;;;;;21.97;12.90;;;;;;;-2.60;82.93;96880.47;6245854;23;20157;-83
2022/12/18 09:47:46;;;;;;;21.93;13.33;;;;;;;-2.62;83.62;96874.66;6244475;23;20712;-84
2022/12/18 09:50:23;;;;;;;20.97;12.73;;;;;;;-2.52;83.11;96879.28;6239694;23;20196;-83
2022/12/18 09:52:54;;;;;;;22.03;13.60;;;;;;;-2.52;83.03;96879.28;6244305;23;20232;-84
2022/12/18 09:55:25;;;;;;;23.43;13.17;;;;;;;-2.68;83.44;96879.97;6244606;23;20177;-84
2022/12/18 09:57:58;;;;;;;24.37;13.70;;;;;;;-2.76;83.56;96880.28;6243768;23;20193;-83
2022/12/18 10:00:26;;;;;;;22.80;12.93;;;;;;;-2.65;83.99;96875.63;6244093;23;20492;-84
2022/12/18 10:02:57;;;;;;;23.93;13.37;;;;;;;-2.55;84.02;96879.41;6245373;23;20176;-85
2022/12/18 10:05:34;;;;;;;25.30;14.03;;;;;;;-2.52;83.79;96876.75;6246742;23;20161;-84
2022/12/18 10:08:06;;;;;;;23.53;13.30;;;;;;;-2.51;84.11;96870.00;6247493;23;20196;-84
2022/12/18 10:10:39;;;;;;;22.73;13.87;;;;;;;-2.31;83.75;96864.91;6246201;23;20168;-84
2022/12/18 10:13:25;;;;;;;22.03;14.10;;;;;;;-2.30;82.26;96861.50;6247294;23;20168;-84
2022/12/18 10:16:01;;;;;;;23.90;14.63;;;;;;;-2.50;83.14;96857.31;6243280;23;20248;-83
2022/12/18 10:18:40;;;;;;;25.57;14.90;;;;;;;-2.47;84.30;96858.88;6246967;23;20486;-83
2022/12/18 10:21:12;;;;;;;28.80;15.80;;;;;;;-2.18;86.90;96860.97;6244906;23;20157;-83
2022/12/18 10:23:48;;;;;;;26.93;15.90;;;;;;;-2.14;81.78;96859.16;6244364;23;20506;-84
2022/12/18 10:26:14;;;;;;;37.93;18.90;;;;;;;-2.04;81.14;96857.03;6244469;23;20197;-83
2022/12/18 10:28:42;;;;;;;32.43;18.57;;;;;;;-2.10;81.56;96840.44;6244764;23;20510;-83
2022/12/18 10:31:16;;;;;;;28.30;15.43;;;;;;;-2.16;81.01;96841.56;6244197;23;20646;-83
2022/12/18 10:33:43;;;;;;;119.23;43.80;;;;;;;-2.26;81.07;96840.31;6243759;23;20701;-83
2022/12/18 10:36:10;;;;;;;78.77;30.47;;;;;;;-2.23;81.42;96839.34;6243568;23;20172;-82
2022/12/18 10:38:36;;;;;;;47.27;22.10;;;;;;;-2.03;81.18;96833.44;6244424;23;20199;-83
2022/12/18 10:41:05;;;;;;;31.00;16.33;;;;;;;-2.14;80.44;96828.88;6243837;23;20181;-83
2022/12/18 10:43:37;;;;;;;57.40;24.43;;;;;;;-2.10;80.77;96830.34;6243510;23;20177;-83
2022/12/18 10:46:17;;;;;;;122.60;41.27;;;;;;;-2.12;80.64;96834.66;6242768;23;20634;-83
2022/12/18 10:48:53;;;;;;;56.90;23.87;;;;;;;-2.07;80.30;96840.31;6243397;23;20160;-83
2022/12/18 10:51:23;;;;;;;28.83;18.03;;;;;;;-2.15;81.09;96840.66;6244198;23;20184;-83
2022/12/18 10:53:56;;;;;;;24.80;15.87;;;;;;;-2.08;81.45;96836.97;6243806;23;20173;-80
2022/12/18 10:56:24;;;;;;;22.67;14.70;;;;;;;-1.94;80.42;96830.50;6243144;23;20912;-82
2022/12/18 10:58:58;;;;;;;26.17;16.30;;;;;;;-2.14;80.38;96836.44;6242907;23;20219;-81
2022/12/18 11:01:26;;;;;;;25.27;15.00;;;;;;;-2.25;81.48;96833.56;6243877;23;20157;-82
2022/12/18 11:04:01;;;;;;;22.70;14.13;;;;;;;-2.38;81.57;96850.13;6243806;23;20535;-83
2022/12/18 11:06:28;;;;;;;21.43;13.80;;;;;;;-2.26;81.94;96855.44;6243654;23;20195;-83
2022/12/18 11:08:59;;;;;;;23.97;14.53;;;;;;;-2.17;80.99;96850.00;6242602;23;20180;-82
2022/12/18 11:11:26;;;;;;;20.77;13.30;;;;;;;-2.10;80.66;96850.53;6242679;23;20161;-82
2022/12/18 11:14:01;;;;;;;22.97;13.70;;;;;;;-2.10;80.17;96856.41;6243159;23;20529;-82
2022/12/18 11:16:31;;;;;;;21.17;13.80;;;;;;;-2.26;80.52;96868.06;6243520;23;20206;-82
2022/12/18 11:19:14;;;;;;;22.53;14.20;;;;;;;-2.25;81.65;96873.91;6242257;23;20678;-82
2022/12/18 11:21:42;;;;;;;21.63;13.40;;;;;;;-2.21;81.24;96867.84;6242797;23;20172;-82
2022/12/18 11:24:25;;;;;;;22.87;14.10;;;;;;;-2.10;80.66;96853.88;6244002;23;20177;-82
2022/12/18 11:26:52;;;;;;;21.60;13.67;;;;;;;-1.91;80.33;96855.56;6242838;23;20227;-85
2022/12/18 11:29:24;;;;;;;21.33;13.67;;;;;;;-1.69;79.65;96855.41;6242505;23;20169;-82
2022/12/18 11:31:52;;;;;;;23.57;14.03;;;;;;;-1.82;78.82;96848.41;6242569;23;20157;-83
2022/12/18 11:34:24;;;;;;;24.37;16.00;;;;;;;-1.86;79.26;96849.44;6242461;23;20176;-83
2022/12/18 11:36:51;;;;;;;20.40;13.50;;;;;;;-1.99;79.07;96845.03;6242654;23;20459;-83
2022/12/18 11:39:21;;;;;;;21.27;13.60;;;;;;;-2.06;79.50;96844.47;6241614;23;20197;-82
2022/12/18 11:42:11;;;;;;;24.27;15.03;;;;;;;-2.12;80.04;96837.19;6242682;23;20184;-82
2022/12/18 11:44:43;;;;;;;21.30;13.27;;;;;;;-2.04;80.14;96840.19;6242004;23;20530;-83
2022/12/18 11:47:19;;;;;;;20.83;13.57;;;;;;;-1.92;79.63;96832.03;6242614;23;20216;-83
2022/12/18 11:49:50;;;;;;;24.47;14.40;;;;;;;-2.08;80.11;96826.88;6242141;23;20165;-83
2022/12/18 11:52:20;;;;;;;20.17;13.43;;;;;;;-2.14;80.16;96827.16;6240779;23;20184;-83
2022/12/18 11:54:46;;;;;;;24.20;15.53;;;;;;;-2.15;79.67;96828.06;6242525;23;20177;-83
2022/12/18 11:57:20;;;;;;;22.37;14.30;;;;;;;-2.05;80.65;96827.63;6240868;23;20200;-83
2022/12/18 11:59:56;;;;;;;23.00;15.20;;;;;;;-2.10;80.27;96817.72;6240579;23;20181;-83
2022/12/18 12:02:42;;;;;;;22.67;14.17;;;;;;;-1.96;80.69;96823.00;6240872;23;20157;-83
2022/12/18 12:05:41;;;;;;;23.00;14.77;;;;;;;-1.94;80.49;96817.88;6242979;23;20161;-83
2022/12/18 12:08:18;;;;;;;25.10;14.73;;;;;;;-1.92;81.51;96818.59;6223423;23;20780;-83
2022/12/18 12:10:57;;;;;;;23.97;15.40;;;;;;;-1.76;80.53;96814.50;6241070;23;20562;-83
2022/12/18 12:13:36;;;;;;;21.90;13.33;;;;;;;-1.54;80.20;96816.84;6242286;23;20157;-83
2022/12/18 12:16:12;;;;;;;22.90;13.53;;;;;;;-1.59;79.07;96814.53;6241622;23;20161;-83
2022/12/18 12:19:02;;;;;;;21.37;13.40;;;;;;;-1.41;78.69;96812.84;6241914;23;20625;-83
2022/12/18 12:21:36;;;;;;;52.87;29.07;;;;;;;-1.54;78.39;96814.34;6241888;23;20177;-84
2022/12/18 12:24:20;;;;;;;36.60;20.70;;;;;;;-1.58;79.38;96811.13;6242707;23;20158;-83
2022/12/18 12:26:53;;;;;;;28.93;15.73;;;;;;;-1.80;79.04;96807.97;6241572;23;20196;-83
2022/12/18 12:29:33;;;;;;;22.33;14.47;;;;;;;-1.96;80.79;96800.28;6242648;23;20157;-83
2022/12/18 12:32:13;;;;;;;25.13;14.70;;;;;;;-2.01;80.33;96802.19;6243016;23;20171;-84
2022/12/18 12:34:48;;;;;;;21.40;14.10;;;;;;;-2.04;80.94;96806.56;6243522;23;20167;-83
2022/12/18 12:37:26;;;;;;;21.83;13.97;;;;;;;-1.86;80.75;96798.97;6242520;23;20196;-83
2022/12/18 12:39:55;;;;;;;22.40;13.97;;;;;;;-1.76;83.06;96797.66;6243115;23;20197;-83
2022/12/18 12:45:22;;;;;;;23.30;13.93;;;;;;;-1.81;80.90;96788.66;6243978;23;20161;-83
2022/12/18 12:47:51;;;;;;;24.13;14.30;;;;;;;-1.84;80.30;96797.19;6242564;23;20780;-83
2022/12/18 12:50:21;;;;;;;19.27;12.30;;;;;;;-1.92;80.86;96794.19;6242799;23;20180;-83
2022/12/18 12:52:53;;;;;;;24.27;13.67;;;;;;;-1.94;79.90;96796.00;6242696;23;20173;-83
2022/12/18 12:55:22;;;;;;;22.57;14.13;;;;;;;-1.99;80.52;96797.91;6242944;23;20162;-84
2022/12/18 12:57:58;;;;;;;21.27;13.63;;;;;;;-1.89;80.51;96798.28;6242516;23;20193;-84
2022/12/18 13:00:27;;;;;;;19.33;12.93;;;;;;;-1.86;80.56;96810.75;6242788;23;20203;-83
2022/12/18 13:03:02;;;;;;;21.47;14.17;;;;;;;-1.73;80.12;96800.00;6243429;23;20176;-83
2022/12/18 13:05:39;;;;;;;21.60;13.30;;;;;;;-1.51;79.91;96802.34;6242148;23;20459;-83
2022/12/18 13:08:08;;;;;;;20.80;13.07;;;;;;;-1.48;78.82;96804.75;6242683;23;20197;-83
2022/12/18 13:10:37;;;;;;;20.43;12.90;;;;;;;-1.40;78.39;96805.19;6243071;23;20276;-83
2022/12/18 13:13:05;;;;;;;22.63;12.87;;;;;;;-1.36;78.26;96805.88;6244772;23;20196;-83
2022/12/18 13:15:35;;;;;;;22.87;13.93;;;;;;;-1.29;78.69;96803.84;6245079;23;20183;-83
2022/12/18 13:18:20;;;;;;;20.93;13.57;;;;;;;-1.14;78.22;96805.63;6244323;23;20196;-83
2022/12/18 13:20:51;;;;;;;22.40;14.40;;;;;;;-1.06;77.52;96817.00;6244859;23;20193;-83
2022/12/18 13:23:28;;;;;;;21.40;13.73;;;;;;;-1.03;77.14;96822.81;6244648;23;20188;-83
2022/12/18 13:25:55;;;;;;;20.40;13.23;;;;;;;-1.05;76.01;96816.13;6245031;23;20478;-83
2022/12/18 13:28:25;;;;;;;21.50;13.70;;;;;;;-1.18;76.47;96804.16;6244899;23;20172;-83
2022/12/18 13:30:56;;;;;;;20.10;13.60;;;;;;;-1.32;76.74;96807.34;6244610;23;20199;-83
2022/12/18 13:33:42;;;;;;;20.97;14.67;;;;;;;-1.48;78.35;96804.75;6244900;23;20223;-83
2022/12/18 13:36:31;;;;;;;22.30;14.23;;;;;;;-1.66;78.11;96807.31;6244734;23;20209;-83
2022/12/18 13:39:22;;;;;;;20.37;12.47;;;;;;;-1.59;78.34;96798.56;6245084;23;20164;-83
2022/12/18 13:41:51;;;;;;;19.50;12.70;;;;;;;-1.58;78.64;96808.59;6245425;23;20173;-83
2022/12/18 13:44:26;;;;;;;22.40;13.00;;;;;;;-1.59;77.76;96812.00;6250046;23;20176;-83
2022/12/18 13:46:54;;;;;;;21.43;13.30;;;;;;;-1.68;78.70;96812.44;6246443;23;20783;-83
2022/12/18 13:49:28;;;;;;;21.67;13.20;;;;;;;-1.47;83.54;96805.56;6244747;23;20180;-86
2022/12/18 13:51:57;;;;;;;21.57;12.70;;;;;;;-0.52;100.00;96799.97;6246175;23;20156;-82
2022/12/18 13:54:28;;;;;;;21.27;13.73;;;;;;;-0.50;83.42;96790.59;6245927;23;20173;-83
2022/12/18 13:56:55;;;;;;;19.23;12.87;;;;;;;-1.01;80.29;96795.75;6241994;23;20200;-85
2022/12/18 13:59:23;;;;;;;19.83;12.87;;;;;;;-1.31;79.86;96790.47;6242146;23;20690;-83
2022/12/18 14:01:54;;;;;;;20.70;13.20;;;;;;;-1.62;80.63;96791.13;6244622;23;20633;-82
2022/12/18 14:04:27;;;;;;;20.73;13.60;;;;;;;-1.73;81.18;96794.16;6244898;23;20162;-83
2022/12/18 14:06:59;;;;;;;20.77;13.63;;;;;;;-1.93;81.41;96800.16;6244792;23;20193;-83
2022/12/18 14:09:28;;;;;;;23.20;13.63;;;;;;;-1.87;82.23;96789.75;6245033;23;20165;-83
2022/12/18 14:12:56;;;;;;;22.90;13.93;;;;;;;-1.70;81.35;96798.25;6244157;23;20176;-83
2022/12/18 14:14:46;;;;;;;21.60;13.90;;;;;;;-1.70;80.98;96806.63;6244226;23;20291;-84
2022/12/18 14:17:14;;;;;;;22.13;14.77;;;;;;;-1.86;81.56;96801.47;6244450;23;20346;-83
2022/12/18 14:19:46;;;;;;;22.77;15.00;;;;;;;-2.01;82.49;96799.66;6245022;23;20845;-83
2022/12/18 14:22:20;;;;;;;28.03;16.83;;;;;;;-1.98;83.09;96808.81;6242672;23;20638;-83
2022/12/18 14:24:46;;;;;;;34.57;21.40;;;;;;;-2.13;84.42;96815.38;6244266;23;20164;-83
2022/12/18 14:27:21;;;;;;;25.07;16.17;;;;;;;-2.11;83.36;96819.44;6244667;23;20193;-84
2022/12/18 14:29:48;;;;;;;23.17;15.17;;;;;;;-2.20;84.12;96816.53;6243698;23;20161;-82
2022/12/18 14:32:17;;;;;;;24.17;15.23;;;;;;;-2.18;84.56;96818.09;6244258;23;20180;-83
2022/12/18 14:34:43;;;;;;;23.23;14.20;;;;;;;-2.19;85.47;96815.63;6242413;23;20188;-84
2022/12/18 14:37:12;;;;;;;22.37;14.60;;;;;;;-2.14;84.95;96811.22;6243835;23;20205;-83
2022/12/18 14:39:40;;;;;;;24.37;14.70;;;;;;;-2.21;84.87;96810.66;6243176;23;20530;-83
2022/12/18 14:42:06;;;;;;;23.43;14.83;;;;;;;-2.38;84.58;96813.13;6242400;23;20177;-84
2022/12/18 14:44:33;;;;;;;24.13;14.63;;;;;;;-2.41;84.79;96805.69;6243415;23;20180;-83
2022/12/18 14:46:59;;;;;;;21.67;13.40;;;;;;;-2.44;85.10;96806.63;6243289;23;20218;-83
2022/12/18 14:49:30;;;;;;;22.90;13.80;;;;;;;-2.48;85.52;96812.69;6240532;23;20184;-83
2022/12/18 14:51:58;;;;;;;23.27;14.43;;;;;;;-2.60;85.95;96825.84;6243415;23;20177;-83
2022/12/18 14:54:26;;;;;;;21.90;13.83;;;;;;;-2.64;86.26;96810.91;6242826;23;20173;-83
2022/12/18 14:57:00;;;;;;;25.63;14.40;;;;;;;-2.53;86.29;96811.28;6242120;23;20204;-83
2022/12/18 14:59:29;;;;;;;22.77;13.77;;;;;;;-2.45;85.45;96805.00;6241231;23;20175;-80
2022/12/18 15:02:00;;;;;;;22.37;14.23;;;;;;;-2.32;84.87;96807.81;6242425;23;20382;-85
2022/12/18 15:04:30;;;;;;;22.93;13.20;;;;;;;-2.22;84.47;96805.69;6243652;23;20161;-83
2022/12/18 15:07:15;;;;;;;23.80;14.47;;;;;;;-2.29;84.51;96802.59;6243159;23;20196;-84
2022/12/18 15:10:02;;;;;;;25.50;14.20;;;;;;;-2.28;84.54;96813.50;6243438;23;20157;-83
2022/12/18 15:12:35;;;;;;;20.67;13.60;;;;;;;-2.22;84.77;96810.72;6242948;23;20555;-84
2022/12/18 15:15:02;;;;;;;21.23;13.40;;;;;;;-2.32;84.75;96814.56;6243563;23;20168;-82
2022/12/18 15:17:29;;;;;;;25.83;14.60;;;;;;;-2.33;85.05;96811.22;6242720;23;20193;-83
2022/12/18 15:20:02;;;;;;;21.77;13.87;;;;;;;-2.31;84.69;96811.16;6243031;23;20183;-82
2022/12/18 15:22:30;;;;;;;24.30;14.73;;;;;;;-2.38;85.03;96812.28;6243562;23;20169;-83
2022/12/18 15:24:58;;;;;;;24.27;14.23;;;;;;;-2.34;85.43;96813.81;6243385;23;20177;-84
2022/12/18 15:27:29;;;;;;;23.43;13.97;;;;;;;-2.41;85.76;96812.44;6242515;23;20196;-82
2022/12/18 15:30:19;;;;;;;24.77;15.03;;;;;;;-2.33;85.86;96818.78;6241170;23;20211;-82
2022/12/18 15:32:46;;;;;;;25.83;15.87;;;;;;;-2.28;85.98;96823.59;6236439;23;20181;-82
2022/12/18 15:35:17;;;;;;;23.53;14.97;;;;;;;-2.17;85.29;96818.91;6242760;23;20177;-83
2022/12/18 15:37:44;;;;;;;23.20;14.37;;;;;;;-2.17;85.00;96823.97;6242894;23;20783;-82
2022/12/18 15:40:14;;;;;;;24.63;14.43;;;;;;;-2.14;84.29;96814.56;6243487;23;20199;-84
2022/12/18 15:45:27;;;;;;;27.27;13.77;;;;;;;-2.37;85.16;96807.19;6243283;23;20160;-81
2022/12/18 15:47:53;;;;;;;24.47;13.93;;;;;;;-2.34;85.67;96809.59;6217823;22;20205;-83
2022/12/18 15:50:20;;;;;;;25.37;15.17;;;;;;;-2.40;85.58;96802.28;6213360;23;20184;-84
2022/12/18 15:52:49;;;;;;;23.77;15.60;;;;;;;-2.41;86.04;96807.38;6212345;23;20177;-83
2022/12/18 15:58:02;;;;;;;25.57;14.30;;;;;;;-2.69;86.93;96807.78;6187588;23;20213;-83
2022/12/18 16:00:30;;;;;;;26.13;14.60;;;;;;;-2.58;86.41;96805.59;6183538;23;20265;-84